This is the latest recevied weather packets stored in our database for station/object EA6MI-10. If no packets are shown the sender has not sent any weather packets the latest 10 day(s).
| Time | Temp. | Humidity | Pressure | Rain* | Wind** | Luminosity | Snow |
|---|---|---|---|---|---|---|---|
| 1777828178 | 22.22° C | 59% | 1006.7 hPa | - | - | - | - |
| 1777827278 | 22.22° C | 59% | 1006.7 hPa | - | - | - | - |
| 1777826378 | 22.22° C | 59% | 1006.9 hPa | - | - | - | - |
| 1777825478 | 21.67° C | 59% | 1006.9 hPa | - | - | - | - |
| 1777824578 | 21.67° C | 60% | 1007.2 hPa | - | - | - | - |
| 1777823677 | 21.67° C | 61% | 1007.2 hPa | - | - | - | - |
| 1777822777 | 21.67° C | 61% | 1007.3 hPa | - | - | - | - |
| 1777821877 | 21.11° C | 62% | 1007.4 hPa | - | - | - | - |
| 1777820978 | 21.11° C | 62% | 1007.6 hPa | - | - | - | - |
| 1777820077 | 21.11° C | 63% | 1007.8 hPa | - | - | - | - |
| 1777819177 | 20.56° C | 63% | 1007.9 hPa | - | - | - | - |
| 1777818277 | 20.56° C | 63% | 1008.2 hPa | - | - | - | - |
| 1777817377 | 20.56° C | 64% | 1008.2 hPa | - | - | - | - |
| 1777816476 | 20.56° C | 64% | 1008.6 hPa | - | - | - | - |
| 1777815576 | 20.56° C | 64% | 1009.1 hPa | - | - | - | - |
| 1777814676 | 20.56° C | 64% | 1009 hPa | - | - | - | - |
| 1777813776 | 20° C | 64% | 1008.9 hPa | - | - | - | - |
| 1777812876 | 20° C | 64% | 1009 hPa | - | - | - | - |
| 1777811076 | 20° C | 64% | 1009.2 hPa | - | - | - | - |
| 1777810176 | 20° C | 64% | 1009.3 hPa | - | - | - | - |
| 1777809275 | 19.44° C | 63% | 1009.4 hPa | - | - | - | - |
| 1777808375 | 19.44° C | 63% | 1009.7 hPa | - | - | - | - |
| 1777807475 | 18.33° C | 63% | 1008.2 hPa | - | - | - | - |
| 1777806575 | 19.44° C | 62% | 1009.7 hPa | - | - | - | - |
| 1777805675 | 19.44° C | 62% | 1009.7 hPa | - | - | - | - |
* Rain since midnight (hover to see other rain measurements)
** Current wind speed in m/s (hover to see current wind gust speed)